Terminal Aerodrome Forecast
Issued by NWS

Home | Current Version | Previous Version | Text Only | Print | Product List | Glossary On
Versions: 1 2 3 4 5 6 7 8 9 10 11 12 13 14 15 16 17 18 19 20
000
FTUS45 KBOI 241120
TAFBKE
TAF
KBKE 241120Z 2412/2512 12008KT P6SM -RA SCT025 OVC050
     FM241900 21010KT P6SM -SHRA VCTS SCT040CB BKN080
     FM250200 33010KT P6SM VCSH BKN050 BKN080
     FM250600 VRB03KT P6SM VCSH BKN040 OVC060=

USA.gov is the U.S. government's official web portal to all federal, state and local government web resources and services.